Time;durP1;ratioP1;P1;durP2;ratioP2;P2;SDS_P1;SDS_P2;PMS_P1;PMS_P2;Temp;Humidity;BMP_temperature;BMP_pressure;BME280_temperature;BME280_humidity;BME280_pressure;Samples;Min_cycle;Max_cycle;Signal;HPM_P1;HPM_P2
2021/12/09 00:01:01;;;;;;;78.40;59.88;;;;;;;0.36;94.23;100437.44;4977077;28;20026;-84
2021/12/09 00:03:28;;;;;;;83.30;60.50;;;;;;;0.30;93.84;100436.53;4977478;28;20038;-84
2021/12/09 00:05:56;;;;;;;82.38;62.20;;;;;;;0.30;93.92;100436.53;5008314;28;20057;-86
2021/12/09 00:08:24;;;;;;;85.03;61.33;;;;;;;0.35;94.41;100439.94;4981448;28;20024;-84
2021/12/09 00:10:49;;;;;;;82.03;59.60;;;;;;;0.17;93.73;100435.59;5005348;28;20018;-86
2021/12/09 00:13:15;;;;;;;84.53;63.03;;;;;;;0.24;93.77;100439.00;4961326;28;20081;-86
2021/12/09 00:15:40;;;;;;;87.93;62.40;;;;;;;0.23;94.04;100433.13;4952656;28;20038;-87
2021/12/09 00:18:05;;;;;;;95.53;63.33;;;;;;;0.20;94.02;100427.19;4956422;28;20030;-84
2021/12/09 00:20:31;;;;;;;85.83;62.13;;;;;;;0.29;94.36;100429.81;4972557;28;20026;-84
2021/12/09 00:22:56;;;;;;;84.47;61.53;;;;;;;0.26;94.36;100423.03;4977318;28;20050;-82
2021/12/09 00:25:22;;;;;;;79.17;62.77;;;;;;;0.29;93.54;100409.56;4995545;28;20014;-83
2021/12/09 00:27:47;;;;;;;75.30;59.47;;;;;;;0.32;93.65;100414.66;4996238;28;20062;-84
2021/12/09 00:30:13;;;;;;;75.40;60.37;;;;;;;0.33;94.22;100407.09;4996038;28;20031;-83
2021/12/09 00:32:40;;;;;;;78.80;58.25;;;;;;;0.29;93.64;100429.81;4993169;28;20012;-84
2021/12/09 00:35:06;;;;;;;;;;;;;;;0.21;94.84;100426.34;4946478;28;20023;-84
2021/12/09 01:57:19;;;;;;;108.13;67.30;;;;;;;0.24;94.16;100417.13;4986218;28;20047;-79
2021/12/09 01:59:44;;;;;;;92.97;60.40;;;;;;;0.22;93.69;100402.75;4961219;29;20035;-92
2021/12/09 02:02:10;;;;;;;94.57;66.25;;;;;;;0.27;92.96;100398.56;4936890;29;20031;-92
2021/12/09 02:04:54;;;;;;;91.40;63.13;;;;;;;-0.11;93.98;100362.00;4959714;28;20034;-87
2021/12/09 02:08:14;;;;;;;95.30;62.63;;;;;;;0.15;93.17;100387.50;4949922;28;20074;-86
2021/12/09 02:10:48;;;;;;;98.07;66.75;;;;;;;0.29;93.25;100399.44;4946210;28;20026;-87
2021/12/09 02:13:28;;;;;;;94.55;66.60;;;;;;;0.22;93.67;100395.16;4953005;28;20034;-86
2021/12/09 02:16:06;;;;;;;81.47;61.00;;;;;;;0.13;93.41;100379.06;4968050;28;20042;-86
2021/12/09 02:35:27;;;;;;;84.45;61.00;;;;;;;0.12;93.67;100382.44;4959197;29;20035;-86
2021/12/09 02:38:50;;;;;;;82.20;60.88;;;;;;;-0.19;93.97;100334.13;4972392;28;20092;-87
2021/12/09 02:41:27;;;;;;;93.55;63.15;;;;;;;-0.12;94.04;100362.00;4943618;28;20434;-86
2021/12/09 02:44:17;;;;;;;;;;;;;;;0.04;94.22;100399.22;4929209;29;20055;-87
2021/12/09 02:47:08;;;;;;;102.50;65.75;;;;;;;0.06;94.25;100399.25;4930659;29;19910;-86
2021/12/09 02:49:43;;;;;;;101.57;65.65;;;;;;;-0.29;94.73;100349.19;4939588;29;20062;-85
2021/12/09 02:52:38;;;;;;;94.80;64.43;;;;;;;-0.12;94.12;100377.16;4934521;29;20039;-85
2021/12/09 02:55:16;;;;;;;95.93;64.55;;;;;;;-0.20;93.11;100355.19;4940442;29;20073;-85
2021/12/09 02:57:54;;;;;;;88.60;64.35;;;;;;;0.12;92.92;100405.19;4927459;29;20036;-85
2021/12/09 03:00:52;;;;;;;94.43;63.63;;;;;;;-0.09;92.28;100388.16;4944873;29;20138;-85
2021/12/09 03:03:23;;;;;;;97.78;64.03;;;;;;;-0.29;93.83;100351.72;4945851;29;20050;-84
2021/12/09 03:05:52;;;;;;;93.70;65.28;;;;;;;0.08;92.76;100416.13;4930068;29;20059;-86
2021/12/09 03:08:23;;;;;;;96.75;64.13;;;;;;;0.06;92.97;100410.19;4931390;29;20019;-87
2021/12/09 03:10:54;;;;;;;105.25;66.05;;;;;;;-0.07;93.63;100390.69;4936255;29;20037;-85
2021/12/09 03:13:21;;;;;;;100.70;67.25;;;;;;;0.02;93.56;100410.16;4934298;29;20027;-85
2021/12/09 03:15:49;;;;;;;101.07;65.05;;;;;;;0.13;93.49;100406.91;4946452;29;20027;-86
2021/12/09 03:18:27;;;;;;;100.90;64.78;;;;;;;-0.17;92.89;100367.00;4928251;29;20545;-86
2021/12/09 03:20:56;;;;;;;83.43;62.15;;;;;;;-0.12;92.53;100369.59;4930687;29;20031;-86
2021/12/09 03:23:22;;;;;;;110.15;67.07;;;;;;;-0.25;92.73;100376.22;4930247;29;20030;-87
2021/12/09 03:25:51;;;;;;;95.53;61.63;;;;;;;0.05;92.44;100420.28;4948443;29;20047;-86
2021/12/09 03:28:25;;;;;;;108.45;65.72;;;;;;;0.13;92.71;100423.75;4948422;29;20054;-86
2021/12/09 03:30:54;;;;;;;100.60;65.10;;;;;;;0.02;92.87;100405.97;4947018;29;20039;-86
2021/12/09 03:33:22;;;;;;;106.97;64.90;;;;;;;-0.16;92.66;100399.03;4955508;28;20130;-87
2021/12/09 03:36:33;;;;;;;87.28;62.05;;;;;;;-0.46;92.91;100391.97;4951733;28;20065;-84
2021/12/09 03:39:19;;;;;;;93.63;63.30;;;;;;;-0.16;92.39;100415.88;4953810;28;20031;-84
2021/12/09 03:42:13;;;;;;;97.47;64.90;;;;;;;-0.11;92.45;100416.78;4963223;29;20038;-84
2021/12/09 03:44:51;;;;;;;93.55;65.35;;;;;;;-0.07;91.76;100461.50;4978565;28;20023;-85
2021/12/09 03:47:25;;;;;;;100.80;61.88;;;;;;;-0.12;91.39;100432.78;4964612;28;20051;-84
2021/12/09 03:49:56;;;;;;;100.78;64.30;;;;;;;0.04;91.65;100454.84;4963808;28;20011;-82
2021/12/09 03:52:26;;;;;;;96.60;64.72;;;;;;;-0.04;91.35;100441.28;4963774;28;20019;-84
2021/12/09 03:54:55;;;;;;;101.93;65.93;;;;;;;-0.14;92.10;100417.59;4964027;28;20087;-83
2021/12/09 03:57:23;;;;;;;108.38;68.10;;;;;;;-0.24;93.05;100425.91;4962992;28;20036;-83
2021/12/09 04:03:28;;;;;;;94.10;64.38;;;;;;;-0.14;91.51;100429.38;4958471;28;20043;-85
2021/12/09 04:05:56;;;;;;;103.00;63.25;;;;;;;0.05;91.42;100458.22;4967210;28;20031;-84
2021/12/09 04:08:23;;;;;;;100.82;66.30;;;;;;;-0.12;91.75;100426.03;4950933;29;20035;-86
2021/12/09 04:10:50;;;;;;;100.60;64.00;;;;;;;0.06;91.59;100452.34;4949692;29;20126;-85
2021/12/09 04:14:12;;;;;;;94.43;64.25;;;;;;;0.14;91.91;100451.59;4953130;29;20011;-86
2021/12/09 04:23:54;;;;;;;97.97;65.10;;;;;;;-0.25;92.68;100420.00;4951860;29;20027;-86
2021/12/09 04:29:36;;;;;;;109.75;67.88;;;;;;;-0.40;92.57;100412.25;4961715;28;20406;-85
2021/12/09 04:32:33;;;;;;;93.53;62.25;;;;;;;-0.32;92.24;100410.66;4951685;28;20028;-85
2021/12/09 04:35:39;;;;;;;105.88;67.88;;;;;;;-0.26;93.62;100436.00;4956174;28;20035;-85
2021/12/09 04:45:38;;;;;;;91.40;59.95;;;;;;;0.00;91.84;100412.69;4908201;29;20065;-84
2021/12/09 04:48:10;;;;;;;131.45;70.50;;;;;;;-0.27;91.51;100378.72;4929014;29;20043;-85
2021/12/09 04:53:59;;;;;;;101.97;64.05;;;;;;;-0.22;92.09;100412.47;4966015;28;20046;-85
2021/12/09 04:56:31;;;;;;;103.85;65.43;;;;;;;-0.10;92.56;100419.31;4933550;29;20499;-86
2021/12/09 04:59:09;;;;;;;97.40;62.50;;;;;;;-0.32;92.20;100399.72;4951746;28;20039;-86
2021/12/09 05:01:35;;;;;;;107.45;66.70;;;;;;;-0.24;91.99;100398.97;4964615;28;20026;-86
2021/12/09 05:04:04;;;;;;;88.95;62.15;;;;;;;-0.30;91.73;100398.03;4969955;28;20039;-86
2021/12/09 05:06:33;;;;;;;74.22;59.80;;;;;;;-0.43;91.09;100389.47;4971709;28;20088;-86
2021/12/09 05:09:05;;;;;;;112.25;68.07;;;;;;;-0.14;92.00;100439.50;4986665;28;20026;-87
2021/12/09 05:14:30;;;;;;;106.53;67.75;;;;;;;-0.19;91.66;100454.63;4996230;28;20031;-85
2021/12/09 05:17:11;;;;;;;98.50;63.95;;;;;;;-0.25;92.03;100432.66;4971101;28;20030;-86
2021/12/09 05:20:15;;;;;;;96.03;66.82;;;;;;;-0.26;91.81;100425.88;4970763;28;20030;-87
2021/12/09 05:23:03;;;;;;;87.45;60.67;;;;;;;-0.09;91.54;100448.00;4972093;28;20031;-86
2021/12/09 05:25:40;;;;;;;100.80;63.13;;;;;;;-0.08;91.44;100442.94;4976061;28;20482;-86
2021/12/09 05:28:16;;;;;;;105.43;64.30;;;;;;;-0.12;91.78;100441.22;4979422;28;20031;-86
2021/12/09 05:34:00;;;;;;;97.00;64.22;;;;;;;-0.15;90.86;100443.72;4997293;28;20100;-85
2021/12/09 05:36:28;;;;;;;103.80;64.53;;;;;;;-0.22;90.70;100454.59;4970385;28;20022;-86
2021/12/09 05:39:02;;;;;;;91.07;61.90;;;;;;;-0.32;91.64;100440.16;4954395;28;20030;-84
2021/12/09 05:41:52;;;;;;;76.63;59.50;;;;;;;-0.14;91.55;100464.78;4954018;28;20035;-86
2021/12/09 05:45:01;;;;;;;97.40;64.57;;;;;;;-0.44;90.95;100420.66;4969797;28;20031;-87
2021/12/09 05:47:29;;;;;;;89.15;62.28;;;;;;;-0.22;91.48;100465.56;4973487;28;20077;-86
2021/12/09 05:49:55;;;;;;;82.07;61.08;;;;;;;-0.42;91.64;100431.63;4966146;28;20106;-86
2021/12/09 05:53:04;;;;;;;105.90;68.07;;;;;;;-0.36;91.45;100469.59;4993730;28;20038;-87
2021/12/09 05:55:31;;;;;;;72.82;57.03;;;;;;;-0.34;91.97;100452.75;4983605;28;20038;-86
2021/12/09 05:58:00;;;;;;;99.97;64.75;;;;;;;-0.28;91.47;100441.91;4967192;28;20037;-87
2021/12/09 06:00:56;;;;;;;92.10;65.18;;;;;;;-0.23;91.54;100436.03;4953459;28;20034;-87
2021/12/09 06:03:38;;;;;;;;;;;;;;;;;;;;;
2021/12/09 06:06:03;;;;;;;83.55;62.22;;;;;;;-0.30;91.25;100425.84;4973979;28;20098;-85
2021/12/09 06:08:29;;;;;;;99.73;66.00;;;;;;;-0.14;91.55;100454.66;4971076;28;20205;-85
2021/12/09 06:10:54;;;;;;;102.53;64.63;;;;;;;-0.18;91.36;100466.44;4953919;28;20057;-86
2021/12/09 06:13:22;;;;;;;95.83;64.07;;;;;;;-0.26;91.26;100456.22;4954520;28;20482;-84
2021/12/09 06:15:50;;;;;;;104.28;66.32;;;;;;;-0.48;91.29;100427.31;4956096;28;20058;-85
2021/12/09 06:18:39;;;;;;;102.55;66.28;;;;;;;-0.51;91.94;100418.88;4959795;28;20022;-86
2021/12/09 06:21:14;;;;;;;101.53;67.63;;;;;;;-0.21;91.28;100479.91;4966797;28;20019;-86
2021/12/09 06:23:52;;;;;;;94.93;64.32;;;;;;;-0.12;91.98;100483.34;4966526;28;20027;-83
2021/12/09 06:29:32;;;;;;;101.28;63.50;;;;;;;-0.32;91.52;100466.25;4947506;28;20056;-85
2021/12/09 06:32:36;;;;;;;94.25;63.80;;;;;;;-0.20;91.54;100496.75;4988416;28;20095;-85
2021/12/09 06:35:52;;;;;;;91.38;64.25;;;;;;;-0.13;91.64;100486.72;4987075;28;20166;-85
2021/12/09 06:38:18;;;;;;;126.15;71.35;;;;;;;-0.17;91.37;100485.84;5025877;23;20042;-86
2021/12/09 06:40:44;;;;;;;95.87;65.00;;;;;;;-0.11;92.16;100488.44;4963756;28;20021;-86
2021/12/09 06:43:10;;;;;;;102.68;64.45;;;;;;;-0.12;91.02;100463.13;4967098;28;20086;-86
2021/12/09 06:55:43;;;;;;;104.28;66.32;;;;;;;-0.09;90.46;100493.50;4999404;28;20046;-84
2021/12/09 07:01:53;;;;;;;95.72;64.05;;;;;;;0.00;90.34;100493.63;4995272;28;19929;-88
2021/12/09 07:04:18;;;;;;;96.55;64.57;;;;;;;-0.05;90.95;100485.09;4979222;28;20023;-89
2021/12/09 07:06:43;;;;;;;95.33;64.07;;;;;;;-0.05;91.32;100491.03;4962398;28;20054;-90
2021/12/09 07:09:09;;;;;;;105.83;66.97;;;;;;;-0.19;90.54;100490.88;4958245;28;20022;-88
2021/12/09 07:11:36;;;;;;;99.05;65.55;;;;;;;-0.25;91.05;100488.28;4974043;28;20034;-89
2021/12/09 07:14:02;;;;;;;100.40;65.85;;;;;;;-0.02;91.17;100497.78;4961328;28;20038;-89
2021/12/09 07:16:31;;;;;;;92.70;64.60;;;;;;;-0.31;91.02;100465.44;4982239;28;20014;-89
2021/12/09 07:18:56;;;;;;;94.47;63.90;;;;;;;-0.03;91.79;100499.47;4967428;28;20015;-90
2021/12/09 07:21:22;;;;;;;97.67;66.27;;;;;;;-0.11;91.50;100500.22;5240852;23;20080;-91
2021/12/09 07:23:49;;;;;;;99.67;63.30;;;;;;;-0.43;91.61;100457.72;4985965;28;20057;-90
2021/12/09 07:26:14;;;;;;;106.43;68.40;;;;;;;-0.32;91.46;100478.91;4985816;28;20022;-88
2021/12/09 07:28:42;;;;;;;79.87;58.23;;;;;;;-0.19;91.02;100480.75;4993217;28;20049;-88
2021/12/09 07:31:11;;;;;;;104.38;64.63;;;;;;;-0.21;91.71;100482.44;5001688;28;20014;-88
2021/12/09 07:33:36;;;;;;;104.10;68.50;;;;;;;-0.16;91.54;100500.16;5009857;28;20049;-88
2021/12/09 07:36:05;;;;;;;101.37;66.03;;;;;;;-0.40;91.93;100493.13;5009097;28;20049;-89
2021/12/09 07:38:30;;;;;;;108.80;66.25;;;;;;;-0.08;91.43;100503.63;5006042;28;20076;-88
2021/12/09 07:40:56;;;;;;;99.50;62.83;;;;;;;-0.12;91.10;100503.59;4990584;28;20063;-89
2021/12/09 07:43:21;;;;;;;107.40;67.23;;;;;;;-0.17;90.86;100495.94;4989606;28;20025;-89
2021/12/09 07:45:46;;;;;;;79.90;58.53;;;;;;;-0.12;91.52;100506.94;4987715;28;20489;-89
2021/12/09 07:48:12;;;;;;;97.60;66.50;;;;;;;-0.29;92.34;100491.56;4988061;28;20030;-90
2021/12/09 07:50:38;;;;;;;96.60;65.30;;;;;;;-0.23;91.62;100505.97;4988436;28;20439;-89
2021/12/09 07:53:04;;;;;;;90.88;62.03;;;;;;;-0.12;91.28;100503.59;4988498;28;20045;-91
2021/12/09 07:55:30;;;;;;;106.28;66.45;;;;;;;-0.14;91.19;100511.16;5004845;28;20043;-89
2021/12/09 07:57:59;;;;;;;110.88;64.45;;;;;;;-0.07;90.92;100517.13;4988184;28;20503;-92
2021/12/09 08:00:30;;;;;;;91.03;62.58;;;;;;;-0.13;91.54;100492.59;5003912;28;20029;-90
2021/12/09 08:02:56;;;;;;;94.90;64.47;;;;;;;-0.18;90.07;100509.41;4990075;28;20046;-90
2021/12/09 08:05:23;;;;;;;98.40;65.40;;;;;;;-0.09;90.55;100528.91;5007287;28;20021;-89
2021/12/09 08:07:49;;;;;;;103.05;64.60;;;;;;;-0.24;91.21;100525.38;4994568;28;20030;-90
2021/12/09 08:10:16;;;;;;;102.53;67.63;;;;;;;-0.25;91.23;100518.59;4991966;28;20024;-89
2021/12/09 08:12:42;;;;;;;106.85;62.42;;;;;;;-0.10;91.49;100537.31;4995999;28;20034;-91
2021/12/09 08:15:09;;;;;;;97.55;66.13;;;;;;;-0.14;91.69;100538.97;5006909;28;20022;-89
2021/12/09 08:20:08;;;;;;;88.32;61.45;;;;;;;-0.04;90.35;100548.34;5004274;28;20026;-89
2021/12/09 08:22:34;;;;;;;104.22;60.97;;;;;;;-0.09;90.54;100528.91;5004705;28;20030;-91
2021/12/09 08:25:00;;;;;;;103.75;65.80;;;;;;;-0.08;91.22;100543.22;5007519;28;20488;-90
2021/12/09 08:27:26;;;;;;;92.70;63.13;;;;;;;-0.11;91.05;100543.19;5000760;28;20038;-89
2021/12/09 08:29:55;;;;;;;99.80;63.72;;;;;;;-0.24;91.72;100534.59;4985250;28;20381;-91
2021/12/09 08:32:20;;;;;;;105.82;66.72;;;;;;;-0.32;91.75;100534.50;4985530;28;20033;-90
2021/12/09 08:34:46;;;;;;;107.72;67.90;;;;;;;-0.26;92.28;100523.63;4992613;28;20029;-89
2021/12/09 08:37:12;;;;;;;110.10;66.95;;;;;;;-0.15;91.91;100531.34;5006911;28;20029;-90
2021/12/09 08:39:37;;;;;;;102.17;64.10;;;;;;;-0.06;92.15;100549.16;4985520;28;20544;-90
2021/12/09 08:42:03;;;;;;;102.95;65.28;;;;;;;-0.06;90.79;100534.84;4984486;28;20542;-89
2021/12/09 08:44:29;;;;;;;97.20;64.97;;;;;;;-0.33;91.35;100510.09;5008430;28;20045;-90
2021/12/09 08:46:54;;;;;;;103.37;63.50;;;;;;;-0.20;92.10;100537.19;4992053;28;20022;-89
2021/12/09 08:49:19;;;;;;;107.20;67.17;;;;;;;-0.21;91.83;100529.59;4990112;28;20060;-91
2021/12/09 08:51:45;;;;;;;123.03;71.47;;;;;;;-0.13;91.88;100522.09;5000487;28;20026;-89
2021/12/09 08:54:18;;;;;;;116.65;69.88;;;;;;;-0.22;92.54;100523.69;4986277;28;20088;-88
2021/12/09 08:56:45;;;;;;;118.38;69.13;;;;;;;-0.31;92.52;100512.63;5005090;28;20025;-86
2021/12/09 08:59:12;;;;;;;128.32;71.97;;;;;;;-0.13;92.48;100501.88;5019241;28;20029;-85
2021/12/09 09:01:38;;;;;;;127.15;72.40;;;;;;;-0.09;91.33;100518.78;4991563;28;20021;-85
2021/12/09 09:04:04;;;;;;;119.97;69.47;;;;;;;-0.07;91.24;100524.69;5007630;28;20113;-84
2021/12/09 09:06:33;;;;;;;103.30;67.87;;;;;;;0.03;91.94;100529.03;4990411;28;20021;-86
2021/12/09 09:08:59;;;;;;;134.98;73.15;;;;;;;-0.20;91.31;100524.56;4990662;28;20025;-84
2021/12/09 09:11:36;;;;;;;128.82;72.00;;;;;;;-0.16;91.67;100522.06;4998297;28;20060;-87
2021/12/09 09:14:01;;;;;;;116.47;71.07;;;;;;;-0.21;92.58;100517.81;4998363;28;20029;-85
2021/12/09 09:16:27;;;;;;;117.97;67.40;;;;;;;-0.09;92.00;100511.22;4983894;28;20374;-85
2021/12/09 09:18:57;;;;;;;127.43;73.17;;;;;;;-0.08;91.97;100525.53;4987282;28;20025;-86
2021/12/09 09:21:23;;;;;;;105.10;65.78;;;;;;;-0.05;90.99;100526.44;4984213;28;20033;-87
2021/12/09 09:23:48;;;;;;;110.70;68.47;;;;;;;-0.22;91.95;100518.63;4983601;28;20023;-86
2021/12/09 09:26:14;;;;;;;130.80;72.83;;;;;;;-0.15;92.25;100511.13;4983330;28;20355;-87
2021/12/09 09:28:39;;;;;;;111.10;69.68;;;;;;;-0.20;92.05;100511.91;4987101;28;20097;-88
2021/12/09 09:31:05;;;;;;;104.43;66.03;;;;;;;-0.20;92.04;100495.91;5003808;28;20033;-85
2021/12/09 09:33:31;;;;;;;117.53;69.97;;;;;;;-0.04;92.00;100522.22;4990101;28;20466;-85
2021/12/09 09:35:57;;;;;;;115.53;70.97;;;;;;;-0.25;91.77;100497.53;4995640;28;20055;-87
2021/12/09 09:38:23;;;;;;;119.72;69.38;;;;;;;-0.04;91.92;100501.97;4993556;28;20111;-85
2021/12/09 09:41:09;;;;;;;113.32;69.80;;;;;;;-0.05;91.69;100502.81;4996723;28;20022;-86
2021/12/09 09:46:12;;;;;;;119.35;70.18;;;;;;;-0.05;91.75;100490.16;5010222;28;20120;-90
2021/12/09 09:48:38;;;;;;;95.35;64.25;;;;;;;0.23;91.21;100519.13;4997456;28;20081;-89
2021/12/09 09:51:05;;;;;;;114.25;68.50;;;;;;;0.08;90.84;100507.19;4997458;28;20018;-87
2021/12/09 09:53:31;;;;;;;108.93;67.65;;;;;;;0.03;91.34;100518.91;4998854;28;20037;-87
2021/12/09 09:55:57;;;;;;;111.85;69.47;;;;;;;-0.15;92.08;100511.13;5001371;28;20026;-86
2021/12/09 09:58:27;;;;;;;97.37;62.03;;;;;;;0.25;91.24;100525.03;5000783;28;20025;-84
2021/12/09 10:00:53;;;;;;;99.97;62.95;;;;;;;0.17;91.02;100519.91;4997226;28;20260;-87
2021/12/09 10:03:18;;;;;;;97.80;63.88;;;;;;;0.06;90.56;100507.97;4993448;28;20064;-85
2021/12/09 10:05:48;;;;;;;98.93;66.03;;;;;;;0.02;90.31;100502.06;4995942;28;20049;-87
2021/12/09 10:08:17;;;;;;;111.70;69.22;;;;;;;-0.13;90.53;100496.81;4997472;28;20106;-87
2021/12/09 10:10:44;;;;;;;108.50;68.38;;;;;;;0.05;91.13;100524.84;5004101;28;20052;-86
2021/12/09 10:13:11;;;;;;;116.88;68.40;;;;;;;-0.03;91.50;100514.66;4996048;28;20022;-86
2021/12/09 10:15:53;;;;;;;105.97;67.13;;;;;;;-0.32;92.69;100511.75;4998728;28;20017;-86
2021/12/09 10:18:43;;;;;;;99.72;64.15;;;;;;;0.00;92.47;100518.91;4990226;28;20025;-86
2021/12/09 10:21:11;;;;;;;105.22;65.72;;;;;;;0.07;91.33;100525.72;5002556;28;20022;-84
2021/12/09 10:23:42;;;;;;;102.70;66.22;;;;;;;0.03;91.32;100533.25;5003119;28;20045;-84
2021/12/09 10:26:24;;;;;;;111.85;69.50;;;;;;;-0.11;92.65;100522.97;5002527;28;20037;-85
2021/12/09 10:28:53;;;;;;;113.68;67.68;;;;;;;-0.04;92.30;100518.00;5001922;28;20029;-86
2021/12/09 10:31:24;;;;;;;66.80;56.75;;;;;;;0.14;90.90;100514.84;5033661;28;20026;-85
2021/12/09 10:36:57;;;;;;;110.88;68.25;;;;;;;0.00;91.57;100508.78;5017853;28;20033;-84
2021/12/09 10:39:28;;;;;;;123.20;70.60;;;;;;;-0.07;91.39;100509.53;5010904;28;20486;-85
2021/12/09 10:41:55;;;;;;;116.97;70.82;;;;;;;-0.04;91.47;100507.03;5008502;28;20062;-86
2021/12/09 10:44:55;;;;;;;112.30;68.45;;;;;;;-0.23;92.28;100475.66;5012062;28;20021;-86
2021/12/09 10:50:35;;;;;;;108.00;67.95;;;;;;;0.03;91.56;100503.72;5035156;28;20065;-84
2021/12/09 10:53:19;;;;;;;109.80;66.68;;;;;;;0.15;91.27;100501.34;4989215;28;20488;-86
2021/12/09 10:55:46;;;;;;;114.40;69.90;;;;;;;0.02;91.10;100497.00;5002505;28;20024;-85
2021/12/09 10:58:14;;;;;;;118.65;68.80;;;;;;;0.24;91.31;100487.09;5012569;28;20062;-86
2021/12/09 11:00:46;;;;;;;126.30;66.78;;;;;;;0.16;90.89;100489.56;5005636;28;20056;-86
2021/12/09 11:03:28;;;;;;;86.72;62.00;;;;;;;0.07;90.77;100479.34;5000605;28;20370;-86
2021/12/09 11:06:07;;;;;;;103.75;67.25;;;;;;;-0.09;92.10;100469.06;5007734;28;20037;-87
2021/12/09 11:08:37;;;;;;;106.78;67.03;;;;;;;0.19;91.32;100469.31;5009943;28;20022;-86
2021/12/09 11:11:11;;;;;;;111.75;68.00;;;;;;;-0.02;91.13;100464.91;5028979;28;20033;-86
2021/12/09 11:13:42;;;;;;;106.40;68.47;;;;;;;0.14;91.93;100492.06;5024730;28;20025;-85
2021/12/09 11:16:11;;;;;;;115.93;70.22;;;;;;;-0.02;91.29;100487.66;4995625;28;20064;-84
2021/12/09 11:18:44;;;;;;;109.80;69.65;;;;;;;-0.13;91.92;100486.72;5006595;28;20544;-85
2021/12/09 11:21:16;;;;;;;114.13;69.32;;;;;;;0.12;91.63;100488.66;5005266;28;20022;-85
2021/12/09 11:23:57;;;;;;;104.65;65.65;;;;;;;0.21;90.83;100487.91;4993312;28;20025;-84
2021/12/09 11:26:44;;;;;;;109.47;66.85;;;;;;;0.26;90.93;100486.28;5003130;28;20043;-86
2021/12/09 11:29:23;;;;;;;112.32;69.22;;;;;;;-0.05;91.72;100460.69;5011874;28;20022;-85
2021/12/09 11:32:29;;;;;;;119.97;70.75;;;;;;;0.07;91.48;100475.13;5008959;28;20029;-88
2021/12/09 11:35:05;;;;;;;121.05;71.45;;;;;;;0.18;91.52;100501.38;5029328;28;20049;-86
2021/12/09 11:40:14;;;;;;;102.93;68.78;;;;;;;0.16;91.60;100490.41;5023604;28;20041;-86
2021/12/09 11:45:08;;;;;;;113.30;71.00;;;;;;;0.00;92.01;100448.09;5023421;28;20032;-88
2021/12/09 11:47:36;;;;;;;118.32;69.38;;;;;;;0.14;91.74;100466.78;5007394;28;20030;-86
2021/12/09 11:50:04;;;;;;;120.18;71.72;;;;;;;0.25;91.85;100483.72;5011313;28;20033;-86
2021/12/09 11:52:32;;;;;;;122.53;71.95;;;;;;;0.21;92.39;100470.22;5012126;28;20057;-86
2021/12/09 11:55:03;;;;;;;120.78;71.40;;;;;;;0.05;91.61;100473.41;5000334;28;20106;-85
2021/12/09 11:57:49;;;;;;;146.75;75.97;;;;;;;0.05;92.12;100476.81;5004384;28;20041;-87
2021/12/09 12:07:04;;;;;;;108.90;65.63;;;;;;;0.42;89.96;100436.66;4995332;28;20060;-87
2021/12/09 12:13:10;;;;;;;125.65;71.65;;;;;;;0.42;90.91;100435.81;5029908;28;20032;-86
2021/12/09 12:15:33;;;;;;;116.40;68.90;;;;;;;0.32;91.31;100445.03;5029184;28;20073;-89
2021/12/09 12:32:05;;;;;;;111.18;70.05;;;;;;;0.48;91.54;100426.59;5007675;28;20029;-87
2021/12/09 12:40:55;;;;;;;106.90;67.63;;;;;;;0.43;90.79;100392.81;5093487;23;20050;-86
2021/12/09 12:43:37;;;;;;;108.57;66.95;;;;;;;0.40;89.99;100392.78;4947840;29;20023;-87
2021/12/09 12:51:59;;;;;;;110.85;69.35;;;;;;;0.74;90.20;100410.72;4966665;28;20050;-87
2021/12/09 12:54:56;;;;;;;120.35;71.18;;;;;;;0.46;89.56;100387.78;4944558;29;20030;-87
2021/12/09 12:57:38;;;;;;;110.78;67.85;;;;;;;0.82;89.60;100413.31;4952883;28;20046;-87
2021/12/09 13:00:13;;;;;;;115.60;68.38;;;;;;;0.86;88.82;100410.81;4958778;28;20046;-87
2021/12/09 13:03:04;;;;;;;105.45;65.57;;;;;;;0.64;89.23;100396.34;4963892;29;20103;-87
2021/12/09 13:06:10;;;;;;;104.72;66.20;;;;;;;0.53;89.26;100364.19;4948477;29;20030;-88
2021/12/09 13:11:41;;;;;;;126.22;71.40;;;;;;;0.71;89.95;100391.28;4966011;28;20026;-86
2021/12/09 13:14:13;;;;;;;106.82;65.90;;;;;;;0.84;89.55;100359.31;4981446;28;20039;-86
2021/12/09 13:17:07;;;;;;;119.60;70.57;;;;;;;1.01;88.71;100361.06;4965597;28;20023;-84
2021/12/09 13:19:52;;;;;;;111.05;69.30;;;;;;;0.68;88.43;100337.28;4965861;28;20043;-87
2021/12/09 13:22:29;;;;;;;126.25;73.18;;;;;;;0.93;89.09;100388.06;4951890;28;20011;-85
2021/12/09 13:25:14;;;;;;;115.93;68.50;;;;;;;1.06;88.52;100394.88;4981692;28;20011;-84
2021/12/09 13:27:51;;;;;;;111.55;69.32;;;;;;;0.93;88.11;100388.91;4964937;28;20030;-85
2021/12/09 13:36:39;;;;;;;123.10;73.35;;;;;;;0.89;89.68;100408.28;4975854;28;20027;-88
2021/12/09 13:39:41;;;;;;;131.65;72.28;;;;;;;0.75;90.73;100402.31;4958048;28;20027;-86
2021/12/09 13:47:48;;;;;;;99.15;68.97;;;;;;;0.85;89.58;100378.72;4954137;29;20113;-88
2021/12/09 13:50:42;;;;;;;118.90;71.40;;;;;;;0.78;89.35;100379.53;4964440;28;20030;-87
2021/12/09 13:56:07;;;;;;;115.15;67.53;;;;;;;0.94;89.78;100399.88;4970238;28;20464;-87
2021/12/09 13:59:13;;;;;;;127.32;71.25;;;;;;;0.77;89.66;100372.78;4960937;28;20244;-89
2021/12/09 14:01:38;;;;;;;116.47;68.97;;;;;;;0.70;90.04;100386.22;4961918;28;20409;-88
2021/12/09 14:04:13;;;;;;;117.90;71.57;;;;;;;0.55;91.16;100399.63;4969146;28;20090;-87
2021/12/09 14:06:57;;;;;;;127.40;71.38;;;;;;;0.61;90.49;100389.56;4962477;28;20022;-87
2021/12/09 14:09:24;;;;;;;122.15;73.45;;;;;;;0.71;91.11;100418.31;4982940;28;20038;-86
2021/12/09 14:11:50;;;;;;;119.90;68.70;;;;;;;0.68;91.02;100414.06;4982145;28;20057;-87
2021/12/09 14:14:29;;;;;;;111.68;67.93;;;;;;;0.50;91.56;100393.69;4982655;28;20014;-88
2021/12/09 14:16:58;;;;;;;123.28;70.88;;;;;;;0.72;91.71;100430.13;4974405;28;20026;-87
2021/12/09 14:21:59;;;;;;;121.00;70.55;;;;;;;0.62;91.25;100408.09;4951302;29;20035;-88
2021/12/09 14:24:30;;;;;;;126.28;72.15;;;;;;;0.74;91.46;100427.63;4948257;29;20011;-88
2021/12/09 14:27:11;;;;;;;124.85;70.70;;;;;;;0.56;91.08;100398.81;4948655;29;20031;-86
2021/12/09 14:29:37;;;;;;;122.90;72.57;;;;;;;0.44;91.44;100379.31;4932038;29;20023;-89
2021/12/09 14:32:08;;;;;;;123.68;70.63;;;;;;;0.82;91.26;100424.28;4931189;29;20403;-87
2021/12/09 14:35:18;;;;;;;132.73;71.75;;;;;;;0.73;91.58;100421.69;4949597;29;20471;-88
2021/12/09 14:40:55;;;;;;;123.88;71.13;;;;;;;0.72;92.42;100420.00;4926029;28;20047;-87
2021/12/09 14:43:21;;;;;;;132.05;74.65;;;;;;;0.74;91.93;100414.94;4941640;28;20031;-87
2021/12/09 14:46:14;;;;;;;130.10;74.30;;;;;;;0.52;92.04;100395.38;4995242;28;20551;-87
2021/12/09 14:49:12;;;;;;;;;;;;;;;;;;;;;
2021/12/09 14:51:44;;;;;;;130.60;73.43;;;;;;;0.30;92.25;100360.66;5014200;28;20069;-87
2021/12/09 14:54:12;;;;;;;108.32;67.82;;;;;;;0.63;92.36;100399.69;4961178;28;20027;-87
2021/12/09 15:01:00;;;;;;;118.22;70.15;;;;;;;0.60;92.15;100399.66;4967184;29;20119;-86
2021/12/09 15:03:59;;;;;;;123.78;69.97;;;;;;;0.50;91.42;100366.69;4989491;28;20022;-86
2021/12/09 15:07:14;;;;;;;122.65;70.03;;;;;;;0.69;92.43;100403.09;4977204;28;20098;-87
2021/12/09 15:12:23;;;;;;;124.30;69.68;;;;;;;0.48;91.86;100370.06;5000824;28;20077;-88
2021/12/09 15:14:51;;;;;;;124.82;72.18;;;;;;;0.70;92.13;100398.88;4970867;28;20030;-87
2021/12/09 15:17:34;;;;;;;115.07;70.10;;;;;;;0.77;92.46;100403.16;4980541;28;20053;-86
2021/12/09 15:20:20;;;;;;;117.20;70.35;;;;;;;0.59;92.17;100408.94;4971853;28;20039;-87
2021/12/09 15:22:57;;;;;;;122.72;68.57;;;;;;;0.71;92.33;100398.88;4951236;28;20038;-89
2021/12/09 15:25:23;;;;;;;118.25;72.80;;;;;;;0.56;91.76;100392.88;4972002;28;20035;-89
2021/12/09 15:27:51;;;;;;;131.63;70.35;;;;;;;0.61;93.11;100426.69;4954805;28;20034;-89
2021/12/09 15:30:18;;;;;;;127.50;72.68;;;;;;;0.44;92.93;100394.47;4969457;28;20015;-90